createdAt,value
2023-04-27T00:01:19.949Z,3.27
2023-04-27T00:03:47.385Z,3.20
2023-04-27T00:06:14.400Z,3.40
2023-04-27T00:08:41.281Z,2.90
2023-04-27T00:11:08.001Z,3.60
2023-04-27T00:13:34.821Z,3.30
2023-04-27T00:16:03.757Z,3.80
2023-04-27T00:18:31.236Z,3.50
2023-04-27T00:20:58.278Z,3.27
2023-04-27T00:23:25.209Z,3.43
2023-04-27T00:25:52.057Z,2.77
2023-04-27T00:28:18.769Z,3.50
2023-04-27T00:30:46.387Z,4.17
2023-04-27T00:33:13.069Z,3.67
2023-04-27T00:35:39.726Z,4.20
2023-04-27T00:38:06.468Z,3.83
2023-04-27T00:40:33.205Z,3.90
2023-04-27T00:42:59.899Z,4.57
2023-04-27T00:45:26.614Z,3.33
2023-04-27T00:47:53.610Z,4.40
2023-04-27T00:50:29.806Z,3.80
2023-04-27T00:52:57.415Z,3.20
2023-04-27T00:55:24.600Z,3.63
2023-04-27T00:57:51.857Z,3.57
2023-04-27T01:00:18.880Z,3.10
2023-04-27T01:02:46.148Z,3.93
2023-04-27T01:05:13.298Z,3.70
2023-04-27T01:07:40.682Z,3.67
2023-04-27T01:10:08.631Z,4.10
2023-04-27T01:12:35.472Z,3.63
2023-04-27T01:15:02.191Z,2.90
2023-04-27T01:17:28.969Z,3.57
2023-04-27T01:19:56.709Z,3.80
2023-04-27T01:22:23.471Z,3.50
2023-04-27T01:24:53.708Z,4.00
2023-04-27T01:27:20.419Z,4.10
2023-04-27T01:29:47.271Z,4.00
2023-04-27T01:32:14.039Z,3.87
2023-04-27T01:34:40.832Z,3.87
2023-04-27T01:37:07.509Z,4.03
2023-04-27T01:39:34.372Z,3.87
2023-04-27T01:42:02.652Z,4.40
2023-04-27T01:44:29.811Z,4.10
2023-04-27T01:46:56.632Z,3.60
2023-04-27T01:49:23.322Z,3.90
2023-04-27T01:51:50.110Z,4.10
2023-04-27T01:54:16.819Z,5.63
2023-04-27T01:56:43.706Z,5.00
2023-04-27T01:59:10.508Z,5.17
2023-04-27T02:01:37.301Z,4.60
2023-04-27T02:04:04.415Z,4.50
2023-04-27T02:06:31.337Z,4.67
2023-04-27T02:08:58.175Z,4.90
2023-04-27T02:11:24.931Z,5.07
2023-04-27T02:13:51.736Z,4.50
2023-04-27T02:16:18.633Z,5.70
2023-04-27T02:18:45.429Z,5.10
2023-04-27T02:21:12.518Z,5.33
2023-04-27T02:23:39.268Z,4.37
2023-04-27T02:26:06.028Z,4.90
2023-04-27T02:28:32.731Z,5.17
2023-04-27T02:31:00.032Z,3.97
2023-04-27T02:33:26.801Z,5.80
2023-04-27T02:35:53.456Z,4.80
2023-04-27T02:38:20.151Z,5.03
2023-04-27T02:40:46.881Z,5.03
2023-04-27T02:43:13.618Z,4.60
2023-04-27T02:45:40.379Z,4.40
2023-04-27T02:48:07.537Z,4.70
2023-04-27T02:50:34.275Z,4.90
2023-04-27T02:53:01.050Z,4.53
2023-04-27T02:55:27.988Z,4.93
2023-04-27T02:57:54.706Z,4.53
2023-04-27T03:00:22.013Z,4.63
2023-04-27T03:02:48.932Z,5.20
2023-04-27T03:05:15.954Z,4.70
2023-04-27T03:07:42.813Z,6.40
2023-04-27T03:10:09.796Z,5.03
2023-04-27T03:12:36.690Z,5.73
2023-04-27T03:15:04.138Z,4.40
2023-04-27T03:17:31.161Z,4.40
2023-04-27T03:19:58.084Z,3.90
2023-04-27T03:22:24.938Z,5.20
2023-04-27T03:24:51.612Z,4.30
2023-04-27T03:27:18.299Z,4.60
2023-04-27T03:29:45.016Z,4.80
2023-04-27T03:32:12.006Z,4.67
2023-04-27T03:34:38.709Z,5.10
2023-04-27T03:37:06.383Z,4.70
2023-04-27T03:39:33.183Z,5.23
2023-04-27T03:42:00.284Z,4.43
2023-04-27T03:44:27.276Z,5.70
2023-04-27T03:46:54.080Z,4.77
2023-04-27T03:49:20.926Z,5.73
2023-04-27T03:51:47.627Z,4.83
2023-04-27T03:54:15.002Z,5.13
2023-04-27T03:56:41.791Z,5.00
2023-04-27T03:59:08.748Z,6.00
2023-04-27T04:01:36.446Z,5.27
2023-04-27T04:04:03.443Z,5.10
2023-04-27T04:06:31.128Z,5.10
2023-04-27T04:08:58.347Z,4.90
2023-04-27T04:11:26.040Z,4.30
2023-04-27T04:13:52.807Z,5.93
2023-04-27T04:16:19.540Z,4.67
2023-04-27T04:18:46.433Z,4.50
2023-04-27T04:21:13.355Z,4.80
2023-04-27T04:23:42.842Z,5.20
2023-04-27T04:26:09.979Z,4.90
2023-04-27T04:28:37.275Z,5.13
2023-04-27T04:31:09.697Z,4.73
2023-04-27T04:33:36.584Z,4.90
2023-04-27T04:36:04.501Z,4.70
2023-04-27T04:38:32.900Z,5.10
2023-04-27T04:40:59.823Z,4.90
2023-04-27T04:43:27.150Z,5.43
2023-04-27T04:45:54.007Z,5.83
2023-04-27T04:48:21.042Z,5.40
2023-04-27T04:50:48.032Z,5.13
2023-04-27T04:53:14.794Z,4.60
2023-04-27T04:55:41.547Z,5.47
2023-04-27T04:58:08.274Z,4.83
2023-04-27T05:00:35.191Z,6.20
2023-04-27T05:03:02.205Z,5.80
2023-04-27T05:05:29.097Z,5.00
2023-04-27T05:07:55.835Z,5.93
2023-04-27T05:10:22.674Z,12.97
2023-04-27T05:12:49.323Z,14.87
2023-04-27T05:15:16.070Z,12.97
2023-04-27T05:17:42.781Z,10.33
2023-04-27T05:20:09.956Z,9.10
2023-04-27T05:22:37.292Z,9.13
2023-04-27T05:25:04.594Z,9.27
2023-04-27T05:27:31.472Z,8.57
2023-04-27T05:29:58.369Z,7.87
2023-04-27T05:32:25.244Z,8.27
2023-04-27T05:34:52.932Z,8.30
2023-04-27T05:37:19.727Z,6.77
2023-04-27T05:39:46.490Z,7.73
2023-04-27T05:42:13.237Z,6.87
2023-04-27T05:44:39.959Z,7.20
2023-04-27T05:47:06.915Z,7.30
2023-04-27T05:49:33.657Z,6.40
2023-04-27T05:52:00.851Z,5.87
2023-04-27T05:54:27.610Z,6.47
2023-04-27T05:56:54.406Z,6.33
2023-04-27T05:59:21.973Z,6.60
2023-04-27T06:01:49.015Z,5.60
2023-04-27T06:04:16.186Z,4.90
2023-04-27T06:06:44.754Z,5.57
2023-04-27T06:09:11.755Z,4.80
2023-04-27T06:11:38.768Z,5.10
2023-04-27T06:14:05.659Z,4.03
2023-04-27T06:16:32.462Z,4.57
2023-04-27T06:18:59.277Z,4.37
2023-04-27T06:21:26.515Z,4.07
2023-04-27T06:23:53.293Z,3.20
2023-04-27T06:26:20.088Z,3.17
2023-04-27T06:28:46.880Z,3.23
2023-04-27T06:31:13.849Z,3.20
2023-04-27T06:33:41.586Z,3.33
2023-04-27T06:36:08.685Z,2.90
2023-04-27T06:38:35.733Z,4.10
2023-04-27T06:41:03.219Z,4.40
2023-04-27T06:43:30.812Z,3.50
2023-04-27T06:45:57.561Z,3.60
2023-04-27T06:48:24.500Z,2.93
2023-04-27T06:50:52.010Z,3.47
2023-04-27T06:53:18.822Z,3.30
2023-04-27T06:55:47.576Z,3.60
2023-04-27T06:58:15.224Z,4.37
2023-04-27T07:00:41.973Z,2.80
2023-04-27T07:03:08.871Z,3.10
2023-04-27T07:05:35.735Z,2.53
2023-04-27T07:08:06.045Z,2.97
2023-04-27T07:10:34.659Z,3.07
2023-04-27T07:13:01.792Z,2.33
2023-04-27T07:15:28.694Z,2.83
2023-04-27T07:17:55.919Z,2.40
2023-04-27T07:20:23.202Z,2.80
2023-04-27T07:22:49.936Z,3.00
2023-04-27T07:25:17.626Z,3.90
2023-04-27T07:27:45.266Z,3.10
2023-04-27T07:30:14.153Z,2.93
2023-04-27T07:32:43.826Z,2.60
2023-04-27T07:35:10.934Z,2.93
2023-04-27T07:37:38.349Z,2.87
2023-04-27T07:40:16.247Z,3.10
2023-04-27T07:42:43.406Z,3.40
2023-04-27T07:45:10.619Z,3.10
2023-04-27T07:47:39.261Z,3.70
2023-04-27T07:50:10.184Z,3.50
2023-04-27T07:52:37.259Z,4.10
2023-04-27T07:55:04.674Z,3.73
2023-04-27T07:57:31.576Z,2.90
2023-04-27T07:59:58.386Z,3.73
2023-04-27T08:02:30.608Z,3.43
2023-04-27T08:04:59.846Z,3.70
2023-04-27T08:07:27.260Z,3.03
2023-04-27T08:09:54.807Z,3.87
2023-04-27T08:12:21.783Z,3.33
2023-04-27T08:14:48.505Z,2.93
2023-04-27T08:17:17.028Z,3.60
2023-04-27T08:19:43.941Z,3.40
2023-04-27T08:22:10.913Z,3.13
2023-04-27T08:24:37.734Z,3.87
2023-04-27T08:27:06.058Z,3.80
2023-04-27T08:29:35.452Z,3.37
2023-04-27T08:32:04.297Z,3.67
2023-04-27T08:34:31.890Z,4.40
2023-04-27T08:36:59.042Z,3.23
2023-04-27T08:39:25.809Z,3.23
2023-04-27T08:41:52.566Z,3.80
2023-04-27T08:44:19.531Z,3.13
2023-04-27T08:46:46.349Z,3.90
2023-04-27T08:49:15.094Z,3.40
2023-04-27T08:51:43.641Z,3.63
2023-04-27T08:54:10.411Z,3.17
2023-04-27T08:56:37.340Z,3.70
2023-04-27T08:59:13.504Z,3.60
2023-04-27T09:01:45.337Z,3.63
2023-04-27T09:04:12.389Z,3.60
2023-04-27T09:06:39.197Z,4.30
2023-04-27T09:09:07.233Z,3.13
2023-04-27T09:11:38.346Z,2.90
2023-04-27T09:14:25.410Z,3.60
2023-04-27T09:16:57.738Z,3.50
2023-04-27T09:19:26.372Z,3.47
2023-04-27T09:22:15.448Z,3.07
2023-04-27T09:24:52.268Z,3.20
2023-04-27T09:27:22.007Z,3.73
2023-04-27T09:29:48.852Z,2.90
2023-04-27T09:32:20.763Z,3.63
2023-04-27T09:34:47.694Z,3.30
2023-04-27T09:37:14.830Z,2.93
2023-04-27T09:39:42.545Z,3.40
2023-04-27T09:42:09.697Z,3.10
2023-04-27T09:44:36.482Z,3.07
2023-04-27T09:47:03.266Z,3.23
2023-04-27T09:49:30.137Z,3.00
2023-04-27T09:51:58.764Z,3.07
2023-04-27T09:54:30.227Z,3.80
2023-04-27T09:57:03.528Z,3.67
2023-04-27T10:00:10.727Z,3.60
2023-04-27T10:02:53.515Z,3.20
2023-04-27T10:05:42.603Z,3.03
2023-04-27T10:08:10.348Z,3.57
2023-04-27T10:10:47.933Z,3.87
2023-04-27T10:13:26.535Z,3.40
2023-04-27T10:15:54.340Z,4.20
2023-04-27T10:18:31.155Z,3.00
2023-04-27T10:21:09.739Z,3.60
2023-04-27T10:23:46.638Z,4.70
2023-04-27T10:26:13.405Z,4.00
2023-04-27T10:28:41.537Z,3.90
2023-04-27T10:31:12.086Z,3.57
2023-04-27T10:33:46.133Z,3.60
2023-04-27T10:36:16.177Z,4.07
2023-04-27T10:38:42.877Z,3.90
2023-04-27T10:41:14.654Z,4.00
2023-04-27T10:43:41.370Z,3.77
2023-04-27T10:46:13.770Z,3.13
2023-04-27T10:48:42.361Z,3.30
2023-04-27T10:51:09.194Z,4.37
2023-04-27T10:53:36.952Z,4.27
2023-04-27T10:56:06.954Z,3.53
2023-04-27T11:01:09.013Z,5.20
2023-04-27T11:03:36.429Z,4.67
2023-04-27T11:06:05.808Z,3.90
2023-04-27T11:08:33.993Z,4.53
2023-04-27T11:11:01.706Z,4.20
2023-04-27T11:13:28.795Z,3.40
2023-04-27T11:15:58.181Z,3.57
2023-04-27T11:18:31.544Z,3.77
2023-04-27T11:21:10.190Z,3.73
2023-04-27T11:23:38.225Z,4.20
2023-04-27T11:26:12.528Z,4.37
2023-04-27T11:28:39.498Z,3.60
2023-04-27T11:31:07.213Z,5.10
2023-04-27T11:33:35.820Z,3.80
2023-04-27T11:36:03.451Z,3.90
2023-04-27T11:38:34.225Z,4.27
2023-04-27T11:41:07.505Z,3.70
2023-04-27T11:43:35.131Z,3.77
2023-04-27T11:46:06.924Z,4.50
2023-04-27T11:48:37.569Z,4.00
2023-04-27T11:51:05.665Z,4.13
2023-04-27T11:53:34.322Z,4.10
2023-04-27T11:56:05.058Z,4.43
2023-04-27T11:58:36.589Z,4.07
2023-04-27T12:01:04.542Z,3.70
2023-04-27T12:03:31.983Z,4.37
2023-04-27T12:06:11.397Z,4.33
2023-04-27T12:08:45.640Z,4.17
2023-04-27T12:11:12.614Z,5.10
2023-04-27T12:13:39.399Z,3.53
2023-04-27T12:16:06.971Z,4.07
2023-04-27T12:18:33.768Z,4.10
2023-04-27T12:21:03.102Z,4.00
2023-04-27T12:23:30.417Z,4.17
2023-04-27T12:25:57.193Z,3.57
2023-04-27T12:28:23.902Z,5.60
2023-04-27T12:30:51.036Z,7.53
2023-04-27T12:33:18.035Z,4.77
2023-04-27T12:35:44.785Z,4.83
2023-04-27T12:38:11.611Z,4.33
2023-04-27T12:40:38.319Z,4.60
2023-04-27T12:43:07.545Z,4.57
2023-04-27T12:45:34.218Z,4.10
2023-04-27T12:48:03.524Z,5.13
2023-04-27T12:50:32.400Z,4.67
2023-04-27T12:53:00.020Z,3.67
2023-04-27T12:55:33.631Z,4.33
2023-04-27T12:58:01.998Z,4.70
2023-04-27T13:00:29.752Z,4.87
2023-04-27T13:02:57.266Z,4.23
2023-04-27T13:05:24.414Z,4.30
2023-04-27T13:07:51.258Z,4.57
2023-04-27T13:10:17.957Z,4.30
2023-04-27T13:12:44.802Z,4.30
2023-04-27T13:15:11.822Z,4.03
2023-04-27T13:17:38.722Z,4.30
2023-04-27T13:20:07.257Z,4.93
2023-04-27T13:22:34.215Z,5.10
2023-04-27T13:25:00.982Z,5.00
2023-04-27T13:27:28.710Z,5.07
2023-04-27T13:29:56.077Z,4.13
2023-04-27T13:32:23.073Z,4.60
2023-04-27T13:34:49.978Z,5.33
2023-04-27T13:37:17.225Z,4.57
2023-04-27T13:39:43.909Z,4.90
2023-04-27T13:42:10.737Z,4.60
2023-04-27T13:44:37.415Z,5.00
2023-04-27T13:47:05.006Z,4.43
2023-04-27T13:49:31.867Z,5.43
2023-04-27T13:51:59.435Z,4.60
2023-04-27T13:54:26.212Z,5.37
2023-04-27T13:56:53.076Z,4.47
2023-04-27T13:59:20.048Z,4.70
2023-04-27T14:01:46.854Z,4.90
2023-04-27T14:04:13.837Z,4.77
2023-04-27T14:06:40.864Z,4.73
2023-04-27T14:09:07.675Z,5.07
2023-04-27T14:11:45.121Z,4.67
2023-04-27T14:14:19.593Z,5.60
2023-04-27T14:16:46.524Z,4.93
2023-04-27T14:19:16.035Z,4.37
2023-04-27T14:21:43.015Z,4.53
2023-04-27T14:24:09.841Z,5.37
2023-04-27T14:26:36.613Z,4.70
2023-04-27T14:29:03.464Z,4.40
2023-04-27T14:31:30.581Z,4.90
2023-04-27T14:33:57.516Z,5.10
2023-04-27T14:36:24.191Z,5.10
2023-04-27T14:38:51.045Z,5.50
2023-04-27T14:41:17.730Z,5.57
2023-04-27T14:43:46.241Z,5.30
2023-04-27T14:48:47.401Z,5.60
2023-04-27T14:51:15.046Z,5.73
2023-04-27T14:53:42.489Z,4.73
2023-04-27T14:56:09.191Z,4.73
2023-04-27T14:58:36.095Z,5.47
2023-04-27T15:01:03.888Z,4.87
2023-04-27T15:03:32.694Z,5.40
2023-04-27T15:06:00.380Z,5.33
2023-04-27T15:08:27.079Z,4.40
2023-04-27T15:10:57.708Z,4.90
2023-04-27T15:13:24.810Z,5.30
2023-04-27T15:15:58.643Z,5.33
2023-04-27T15:18:25.900Z,4.87
2023-04-27T15:20:53.979Z,5.07
2023-04-27T15:23:21.690Z,5.27
2023-04-27T15:25:49.397Z,5.60
2023-04-27T15:28:16.699Z,6.93
2023-04-27T15:30:44.229Z,5.03
2023-04-27T15:33:12.301Z,5.87
2023-04-27T15:35:40.308Z,5.27
2023-04-27T15:38:12.724Z,5.57
2023-04-27T15:40:40.446Z,5.10
2023-04-27T15:43:07.726Z,5.40
2023-04-27T15:45:34.670Z,4.60
2023-04-27T15:48:01.660Z,5.30
2023-04-27T15:50:28.766Z,5.47
2023-04-27T15:52:55.511Z,5.30
2023-04-27T15:55:22.580Z,5.00
2023-04-27T15:57:50.247Z,4.80
2023-04-27T16:00:18.867Z,4.70
2023-04-27T16:02:46.443Z,5.17
2023-04-27T16:05:13.787Z,5.43
2023-04-27T16:07:42.733Z,4.53
2023-04-27T16:10:10.360Z,5.17
2023-04-27T16:12:37.178Z,4.67
2023-04-27T16:15:04.390Z,4.57
2023-04-27T16:17:32.826Z,5.43
2023-04-27T16:20:00.168Z,5.23
2023-04-27T16:22:27.971Z,5.63
2023-04-27T16:24:54.649Z,5.10
2023-04-27T16:27:21.459Z,4.57
2023-04-27T16:29:48.185Z,4.60
2023-04-27T16:32:15.012Z,4.60
2023-04-27T16:34:41.848Z,5.17
2023-04-27T16:37:08.576Z,5.73
2023-04-27T16:39:35.743Z,4.50
2023-04-27T16:42:03.118Z,5.97
2023-04-27T16:44:30.256Z,11.10
2023-04-27T16:46:57.034Z,8.00
2023-04-27T16:49:24.138Z,6.80
2023-04-27T16:51:52.524Z,6.50
2023-04-27T16:54:20.525Z,5.53
2023-04-27T16:56:48.025Z,6.70
2023-04-27T16:59:15.511Z,5.07
2023-04-27T17:01:42.644Z,4.70
2023-04-27T17:04:10.729Z,5.10
2023-04-27T17:06:37.781Z,4.93
2023-04-27T17:09:04.760Z,5.20
2023-04-27T17:11:31.785Z,4.40
2023-04-27T17:13:58.500Z,5.27
2023-04-27T17:16:27.065Z,4.73
2023-04-27T17:18:54.836Z,3.97
2023-04-27T17:21:22.770Z,4.20
2023-04-27T17:23:51.685Z,6.40
2023-04-27T17:26:21.337Z,4.43
2023-04-27T17:28:49.124Z,4.70
2023-04-27T17:31:17.599Z,4.67
2023-04-27T17:33:44.996Z,4.40
2023-04-27T17:36:12.438Z,4.90
2023-04-27T17:38:39.199Z,4.70
2023-04-27T17:41:06.042Z,4.53
2023-04-27T17:43:32.913Z,4.10
2023-04-27T17:45:59.714Z,4.43
2023-04-27T17:48:26.962Z,9.30
2023-04-27T17:50:53.798Z,4.83
2023-04-27T17:53:20.540Z,4.30
2023-04-27T17:55:47.905Z,4.83
2023-04-27T17:58:15.576Z,3.80
2023-04-27T18:00:43.198Z,5.17
2023-04-27T18:03:11.456Z,4.50
2023-04-27T18:05:38.614Z,5.17
2023-04-27T18:08:05.874Z,6.47
2023-04-27T18:10:32.619Z,6.90
2023-04-27T18:12:59.545Z,6.80
2023-04-27T18:15:26.311Z,6.33
2023-04-27T18:17:53.124Z,6.27
2023-04-27T18:20:22.890Z,7.30
2023-04-27T18:22:50.110Z,4.60
2023-04-27T18:25:16.937Z,4.63
2023-04-27T18:27:45.163Z,5.00
2023-04-27T18:30:12.305Z,4.93
2023-04-27T18:32:39.090Z,4.87
2023-04-27T18:35:06.471Z,4.40
2023-04-27T18:37:37.360Z,5.53
2023-04-27T18:40:05.913Z,4.90
2023-04-27T18:42:32.684Z,4.63
2023-04-27T18:45:00.775Z,5.17
2023-04-27T18:47:28.030Z,5.50
2023-04-27T18:49:54.991Z,4.43
2023-04-27T18:52:22.010Z,4.97
2023-04-27T18:54:48.773Z,4.80
2023-04-27T18:57:15.524Z,6.07
2023-04-27T18:59:42.746Z,5.30
2023-04-27T19:02:09.487Z,5.27
2023-04-27T19:04:36.490Z,5.30
2023-04-27T19:07:03.612Z,4.60
2023-04-27T19:09:30.534Z,5.00
2023-04-27T19:12:02.910Z,5.00
2023-04-27T19:14:32.482Z,4.63
2023-04-27T19:16:59.197Z,5.40
2023-04-27T19:19:26.699Z,5.97
2023-04-27T19:21:54.040Z,5.23
2023-04-27T19:24:20.912Z,4.73
2023-04-27T19:26:48.375Z,5.33
2023-04-27T19:29:15.698Z,4.93
2023-04-27T19:31:42.835Z,5.10
2023-04-27T19:34:09.666Z,5.20
2023-04-27T19:36:36.350Z,4.70
2023-04-27T19:39:03.608Z,4.63
2023-04-27T19:41:30.405Z,5.50
2023-04-27T19:43:57.205Z,4.70
2023-04-27T19:46:24.062Z,3.93
2023-04-27T19:48:53.204Z,5.47
2023-04-27T19:51:19.915Z,5.60
2023-04-27T19:53:46.755Z,4.97
2023-04-27T19:56:13.480Z,5.63
2023-04-27T19:58:40.245Z,5.23
2023-04-27T20:01:06.998Z,4.80
2023-04-27T20:03:35.481Z,4.90
2023-04-27T20:06:02.798Z,5.30
2023-04-27T20:08:30.627Z,4.80
2023-04-27T20:10:57.441Z,4.80
2023-04-27T20:13:24.201Z,4.60
2023-04-27T20:15:52.238Z,3.87
2023-04-27T20:18:19.437Z,4.83
2023-04-27T20:20:46.197Z,4.57
2023-04-27T20:23:12.941Z,5.60
2023-04-27T20:25:42.545Z,5.40
2023-04-27T20:28:09.533Z,5.43
2023-04-27T20:30:36.432Z,4.73
2023-04-27T20:33:03.704Z,4.67
2023-04-27T20:35:31.301Z,5.47
2023-04-27T20:37:58.059Z,4.60
2023-04-27T20:40:24.795Z,4.83
2023-04-27T20:42:51.723Z,4.87
2023-04-27T20:45:18.826Z,5.33
2023-04-27T20:47:45.565Z,5.37
2023-04-27T20:50:12.610Z,5.57
2023-04-27T20:52:39.340Z,4.93
2023-04-27T20:55:06.527Z,5.07
2023-04-27T20:57:33.337Z,4.87
2023-04-27T21:00:00.114Z,4.67
2023-04-27T21:02:27.018Z,4.33
2023-04-27T21:04:53.845Z,4.90
2023-04-27T21:07:20.908Z,4.80
2023-04-27T21:09:47.827Z,4.90
2023-04-27T21:12:16.800Z,4.40
2023-04-27T21:14:43.841Z,4.93
2023-04-27T21:17:10.767Z,4.77
2023-04-27T21:19:37.595Z,5.40
2023-04-27T21:22:04.284Z,4.73
2023-04-27T21:24:31.021Z,7.13
2023-04-27T21:26:57.997Z,5.30
2023-04-27T21:29:24.789Z,4.90
2023-04-27T21:31:51.500Z,5.10
2023-04-27T21:34:18.363Z,5.57
2023-04-27T21:36:45.130Z,5.10
2023-04-27T21:39:11.931Z,4.40
2023-04-27T21:41:39.863Z,4.60
2023-04-27T21:44:06.923Z,5.23
2023-04-27T21:46:33.727Z,4.97
2023-04-27T21:49:00.475Z,4.80
2023-04-27T21:51:27.202Z,4.83
2023-04-27T21:53:53.957Z,4.90
2023-04-27T21:56:21.162Z,4.63
2023-04-27T21:58:47.907Z,4.83
2023-04-27T22:01:14.738Z,5.37
2023-04-27T22:03:41.916Z,5.47
2023-04-27T22:06:09.087Z,4.60
2023-04-27T22:08:35.895Z,5.57
2023-04-27T22:11:02.680Z,5.73
2023-04-27T22:13:29.363Z,5.10
2023-04-27T22:15:56.181Z,4.90
2023-04-27T22:18:23.047Z,4.63
2023-04-27T22:20:49.804Z,4.97
2023-04-27T22:23:16.662Z,5.40
2023-04-27T22:25:43.544Z,5.97
2023-04-27T22:28:10.874Z,5.10
2023-04-27T22:30:37.857Z,6.50
2023-04-27T22:33:04.945Z,5.70
2023-04-27T22:35:32.707Z,5.57
2023-04-27T22:37:59.991Z,4.87
2023-04-27T22:40:26.882Z,5.00
2023-04-27T22:42:54.994Z,5.63
2023-04-27T22:45:22.820Z,5.27
2023-04-27T22:47:50.030Z,4.83
2023-04-27T22:50:16.876Z,6.17
2023-04-27T22:52:43.718Z,5.80
2023-04-27T22:55:12.025Z,5.63
2023-04-27T22:57:40.250Z,5.80
2023-04-27T23:00:11.287Z,5.67
2023-04-27T23:02:42.208Z,4.47
2023-04-27T23:05:10.618Z,5.87
2023-04-27T23:07:37.493Z,5.27
2023-04-27T23:10:05.922Z,6.50
2023-04-27T23:12:33.198Z,6.07
2023-04-27T23:14:59.960Z,5.73
2023-04-27T23:17:32.712Z,5.27
2023-04-27T23:20:01.590Z,6.17
2023-04-27T23:22:28.495Z,5.00
2023-04-27T23:24:55.396Z,6.27
2023-04-27T23:27:23.562Z,6.10
2023-04-27T23:29:50.496Z,5.20
2023-04-27T23:32:17.363Z,5.90
2023-04-27T23:34:44.122Z,5.40
2023-04-27T23:37:10.927Z,6.00
2023-04-27T23:39:38.266Z,7.10
2023-04-27T23:42:05.068Z,6.37
2023-04-27T23:44:31.772Z,6.23
2023-04-27T23:46:58.477Z,5.47
2023-04-27T23:49:25.316Z,5.80
2023-04-27T23:51:52.667Z,6.50
2023-04-27T23:54:19.433Z,5.83
2023-04-27T23:56:46.104Z,6.40
2023-04-27T23:59:15.001Z,5.43
